Portada
METAR-TAF:

METAR-TAF

Aeroports :

Matsuyama, Japó

latitud: 33-49N, longitud: 132-42E, altitud: 4 m

Observació

L'informe es va fer fa 5 hores i 19 minuts, a les 12:00 UTC
Vent 6 kt del Est/Sud-Est
Temperatura 26°C
Humitat 79%
Pressió 1005 hPa
Visibilitat 10 km o més
Escasses núvols a una alçada de 2500 ft
Cel ennuvolat

METAR: RJOM 121200Z 12006KT 9999 FEW025 BKN/// 26/22 Q1005

Hora: 02:19 (17:19 UTC)

Pronòstic

L'informe es va fer fa 6 hores i 12 minuts, a les 11:07 UTC
Pronòstic vàlid del 12 a les 12 UTC al 13 a les 18 UTC
Vent 4 kt del Est/Sud-Est
Visibilitat 10 km o més
Escasses núvols a una alçada de 2000 ft
Núvols disperses a una alçada de 7000 ft
Evolucionant progressivament
l' 12 a les 20 UTC al 12 a les 22 UTC
Vent 7 kt del Nord
Evolucionant progressivament
l' 13 a les 09 UTC al 13 a les 12 UTC
Vent 5 kt del Est/Sud-Est

TAF: RJOM 121107Z 1212/1318 12004KT 9999 FEW020 SCT070 BECMG 1220/1222 01007KT BECMG 1309/1312 12005KT

Observacions i pronòstics meteorològics de més de 4000 aeroports (METAR i TAF).

Les estacions disponibles són els punts grocs i vermells al mapa.

Posi el ratolí al punt desitjat per veure el nom de l'estació.

Feu clic per veure les observacions i els pronòstics meteorològics.

Per canviar el mapa: feu clic els botons verds amb una creu de color negre per apropar; al botó verd amb un guió per allunyar la imatge; o en les fletxes verdes per a mapes adjacents.


METAR-TAF: